createdAt,value
2022-08-25T00:00:22.388Z,83.91
2022-08-25T00:02:55.193Z,84.02
2022-08-25T00:05:26.061Z,83.66
2022-08-25T00:07:54.251Z,83.87
2022-08-25T00:10:21.330Z,84.98
2022-08-25T00:12:48.040Z,82.48
2022-08-25T00:15:14.580Z,85.10
2022-08-25T00:17:41.403Z,84.51
2022-08-25T00:20:09.810Z,85.30
2022-08-25T00:22:36.469Z,83.43
2022-08-25T00:25:06.546Z,84.64
2022-08-25T00:27:33.234Z,87.35
2022-08-25T00:30:00.365Z,87.80
2022-08-25T00:32:27.166Z,87.85
2022-08-25T00:34:53.734Z,88.12
2022-08-25T00:37:20.884Z,90.41
2022-08-25T00:39:48.320Z,90.74
2022-08-25T00:42:16.496Z,91.80
2022-08-25T00:44:43.809Z,90.59
2022-08-25T00:47:10.667Z,90.81
2022-08-25T00:49:44.616Z,91.11
2022-08-25T00:52:15.075Z,91.38
2022-08-25T00:54:50.286Z,92.09
2022-08-25T00:57:22.090Z,92.80
2022-08-25T01:00:01.967Z,92.85
2022-08-25T01:02:28.590Z,93.69
2022-08-25T01:04:55.192Z,92.19
2022-08-25T01:07:24.104Z,92.92
2022-08-25T01:09:53.337Z,93.17
2022-08-25T01:12:20.869Z,92.71
2022-08-25T01:14:50.007Z,93.00
2022-08-25T01:17:17.071Z,93.63
2022-08-25T01:19:44.522Z,93.63
2022-08-25T01:22:12.486Z,94.74
2022-08-25T01:24:52.771Z,93.29
2022-08-25T01:27:19.597Z,94.68
2022-08-25T01:29:46.235Z,93.59
2022-08-25T01:32:14.910Z,91.92
2022-08-25T01:34:44.928Z,92.47
2022-08-25T01:37:13.958Z,92.44
2022-08-25T01:39:41.717Z,93.83
2022-08-25T01:42:11.384Z,94.37
2022-08-25T01:44:40.993Z,94.37
2022-08-25T01:47:08.560Z,95.82
2022-08-25T01:49:36.060Z,97.61
2022-08-25T01:52:13.457Z,99.01
2022-08-25T01:54:40.078Z,99.01
2022-08-25T01:57:06.936Z,99.15
2022-08-25T01:59:33.633Z,99.86
2022-08-25T02:02:00.766Z,100.00
2022-08-25T02:04:32.634Z,100.00
2022-08-25T02:07:06.498Z,100.00
2022-08-25T02:09:34.643Z,100.00
2022-08-25T02:12:01.259Z,100.00
2022-08-25T02:14:28.586Z,100.00
2022-08-25T02:16:56.756Z,100.00
2022-08-25T02:19:26.289Z,100.00
2022-08-25T02:21:54.113Z,100.00
2022-08-25T02:24:20.908Z,100.00
2022-08-25T02:26:47.735Z,100.00
2022-08-25T02:29:14.562Z,100.00
2022-08-25T02:31:41.217Z,100.00
2022-08-25T02:34:12.462Z,100.00
2022-08-25T02:36:40.235Z,100.00
2022-08-25T02:39:09.383Z,100.00
2022-08-25T02:41:36.162Z,100.00
2022-08-25T02:44:04.466Z,100.00
2022-08-25T02:46:31.772Z,100.00
2022-08-25T02:48:59.573Z,100.00
2022-08-25T02:51:30.056Z,100.00
2022-08-25T02:54:02.156Z,100.00
2022-08-25T02:56:30.377Z,100.00
2022-08-25T02:58:57.158Z,100.00
2022-08-25T03:01:28.434Z,100.00
2022-08-25T03:03:56.882Z,100.00
2022-08-25T03:06:24.161Z,100.00
2022-08-25T03:08:52.526Z,100.00
2022-08-25T03:11:19.765Z,100.00
2022-08-25T03:13:46.710Z,100.00
2022-08-25T03:16:14.535Z,100.00
2022-08-25T03:18:42.660Z,100.00
2022-08-25T03:21:11.626Z,100.00
2022-08-25T03:23:39.503Z,100.00
2022-08-25T03:26:24.980Z,100.00
2022-08-25T03:28:51.671Z,100.00
2022-08-25T03:31:19.132Z,100.00
2022-08-25T03:33:46.108Z,100.00
2022-08-25T03:36:12.922Z,100.00
2022-08-25T03:38:41.680Z,100.00
2022-08-25T03:41:16.621Z,100.00
2022-08-25T03:43:44.029Z,100.00
2022-08-25T03:46:19.281Z,100.00
2022-08-25T03:48:46.310Z,100.00
2022-08-25T03:51:13.860Z,100.00
2022-08-25T03:53:40.382Z,100.00
2022-08-25T03:56:07.068Z,100.00
2022-08-25T03:58:34.036Z,100.00
2022-08-25T04:01:00.667Z,100.00
2022-08-25T04:03:27.392Z,100.00
2022-08-25T04:05:53.928Z,100.00
2022-08-25T04:08:22.925Z,100.00
2022-08-25T04:10:49.578Z,100.00
2022-08-25T04:13:16.109Z,100.00
2022-08-25T04:15:44.190Z,100.00
2022-08-25T04:18:14.117Z,100.00
2022-08-25T04:20:46.417Z,100.00
2022-08-25T04:23:13.402Z,100.00
2022-08-25T04:25:42.497Z,100.00
2022-08-25T04:28:10.273Z,100.00
2022-08-25T04:30:41.704Z,100.00
2022-08-25T04:33:08.261Z,100.00
2022-08-25T04:35:35.628Z,100.00
2022-08-25T04:38:02.794Z,100.00
2022-08-25T04:40:29.493Z,100.00
2022-08-25T04:42:56.129Z,100.00
2022-08-25T04:45:22.766Z,100.00
2022-08-25T04:47:53.016Z,100.00
2022-08-25T04:50:21.489Z,100.00
2022-08-25T04:52:49.358Z,100.00
2022-08-25T04:55:18.185Z,100.00
2022-08-25T04:57:44.998Z,100.00
2022-08-25T05:00:12.401Z,100.00
2022-08-25T05:02:38.960Z,100.00
2022-08-25T05:05:07.046Z,100.00
2022-08-25T05:07:33.693Z,100.00
2022-08-25T05:10:00.394Z,100.00
2022-08-25T05:12:27.021Z,100.00
2022-08-25T05:14:55.677Z,100.00
2022-08-25T05:17:22.564Z,100.00
2022-08-25T05:19:49.215Z,100.00
2022-08-25T05:22:18.982Z,100.00
2022-08-25T05:24:45.606Z,100.00
2022-08-25T05:27:12.173Z,100.00
2022-08-25T05:29:38.938Z,100.00
2022-08-25T05:32:05.655Z,100.00
2022-08-25T05:34:32.251Z,100.00
2022-08-25T05:37:00.208Z,100.00
2022-08-25T05:39:27.099Z,100.00
2022-08-25T05:41:53.973Z,100.00
2022-08-25T05:44:21.518Z,100.00
2022-08-25T05:46:48.372Z,100.00
2022-08-25T05:49:15.079Z,100.00
2022-08-25T05:51:41.726Z,100.00
2022-08-25T05:54:08.605Z,100.00
2022-08-25T05:56:35.155Z,100.00
2022-08-25T05:59:04.984Z,100.00
2022-08-25T06:01:52.581Z,100.00
2022-08-25T06:04:20.345Z,100.00
2022-08-25T06:06:47.396Z,100.00
2022-08-25T06:09:13.941Z,100.00
2022-08-25T06:11:41.609Z,100.00
2022-08-25T06:14:10.573Z,100.00
2022-08-25T06:16:39.299Z,100.00
2022-08-25T06:19:07.286Z,100.00
2022-08-25T06:21:33.984Z,100.00
2022-08-25T06:24:01.644Z,100.00
2022-08-25T06:26:28.239Z,100.00
2022-08-25T06:28:54.741Z,100.00
2022-08-25T06:31:22.612Z,100.00
2022-08-25T06:33:50.238Z,100.00
2022-08-25T06:36:17.377Z,100.00
2022-08-25T06:38:43.947Z,100.00
2022-08-25T06:41:13.042Z,100.00
2022-08-25T06:43:47.402Z,100.00
2022-08-25T06:46:19.924Z,100.00
2022-08-25T06:48:46.545Z,100.00
2022-08-25T06:51:15.729Z,100.00
2022-08-25T06:53:44.241Z,100.00
2022-08-25T06:56:12.297Z,100.00
2022-08-25T06:58:39.176Z,100.00
2022-08-25T07:01:15.010Z,100.00
2022-08-25T07:03:47.487Z,100.00
2022-08-25T07:06:18.265Z,100.00
2022-08-25T07:08:46.384Z,100.00
2022-08-25T07:11:16.634Z,100.00
2022-08-25T07:13:45.332Z,100.00
2022-08-25T07:16:13.222Z,100.00
2022-08-25T07:18:39.897Z,100.00
2022-08-25T07:21:09.152Z,100.00
2022-08-25T07:23:36.982Z,100.00
2022-08-25T07:26:36.282Z,100.00
2022-08-25T07:29:31.736Z,100.00
2022-08-25T07:32:03.919Z,100.00
2022-08-25T07:34:51.877Z,100.00
2022-08-25T07:37:45.388Z,100.00
2022-08-25T07:40:08.360Z,100.00
2022-08-25T07:42:36.024Z,100.00
2022-08-25T07:45:05.509Z,100.00
2022-08-25T07:47:34.747Z,100.00
2022-08-25T07:50:01.381Z,100.00
2022-08-25T07:52:28.201Z,100.00
2022-08-25T07:54:55.202Z,100.00
2022-08-25T07:57:24.589Z,100.00
2022-08-25T07:59:51.203Z,100.00
2022-08-25T08:02:19.358Z,100.00
2022-08-25T08:04:50.911Z,100.00
2022-08-25T08:07:42.084Z,100.00
2022-08-25T08:10:42.299Z,100.00
2022-08-25T08:12:59.179Z,100.00
2022-08-25T08:15:25.984Z,100.00
2022-08-25T08:17:57.873Z,100.00
2022-08-25T08:20:25.191Z,100.00
2022-08-25T08:22:52.018Z,100.00
2022-08-25T08:25:24.252Z,100.00
2022-08-25T08:27:54.848Z,100.00
2022-08-25T08:30:23.712Z,100.00
2022-08-25T08:33:09.066Z,100.00
2022-08-25T08:35:36.629Z,100.00
2022-08-25T08:38:03.741Z,100.00
2022-08-25T08:41:15.201Z,100.00
2022-08-25T08:43:44.491Z,100.00
2022-08-25T08:46:11.367Z,100.00
2022-08-25T08:49:02.658Z,100.00
2022-08-25T08:51:44.702Z,100.00
2022-08-25T08:54:25.450Z,100.00
2022-08-25T08:57:03.936Z,100.00
2022-08-25T08:59:41.914Z,100.00
2022-08-25T09:02:39.565Z,100.00
2022-08-25T09:05:15.108Z,100.00
2022-08-25T09:08:11.819Z,100.00
2022-08-25T09:11:03.331Z,100.00
2022-08-25T09:13:41.824Z,100.00
2022-08-25T09:16:43.243Z,100.00
2022-08-25T09:19:24.705Z,100.00
2022-08-25T09:22:02.166Z,100.00
2022-08-25T09:24:41.535Z,100.00
2022-08-25T09:27:31.872Z,100.00
2022-08-25T09:30:01.050Z,100.00
2022-08-25T09:32:36.139Z,100.00
2022-08-25T09:35:04.616Z,100.00
2022-08-25T09:37:31.208Z,100.00
2022-08-25T09:39:58.975Z,100.00
2022-08-25T09:42:50.338Z,100.00
2022-08-25T09:45:43.985Z,100.00
2022-08-25T09:48:28.749Z,100.00
2022-08-25T09:51:10.464Z,100.00
2022-08-25T09:53:48.538Z,100.00
2022-08-25T09:56:21.674Z,100.00
2022-08-25T09:58:49.184Z,100.00
2022-08-25T10:01:20.731Z,100.00
2022-08-25T10:04:05.668Z,100.00
2022-08-25T10:06:45.179Z,100.00
2022-08-25T10:09:23.785Z,100.00
2022-08-25T10:11:57.471Z,100.00
2022-08-25T10:14:36.548Z,100.00
2022-08-25T10:17:27.388Z,100.00
2022-08-25T10:20:13.159Z,100.00
2022-08-25T10:22:41.755Z,100.00
2022-08-25T10:25:16.129Z,100.00
2022-08-25T10:27:58.915Z,100.00
2022-08-25T10:30:34.008Z,100.00
2022-08-25T10:33:12.770Z,100.00
2022-08-25T10:35:57.174Z,100.00
2022-08-25T10:38:36.333Z,100.00
2022-08-25T10:41:10.287Z,100.00
2022-08-25T10:43:48.070Z,100.00
2022-08-25T10:46:37.940Z,100.00
2022-08-25T10:49:16.852Z,100.00
2022-08-25T10:52:01.189Z,100.00
2022-08-25T10:54:39.629Z,100.00
2022-08-25T10:57:13.147Z,100.00
2022-08-25T11:00:02.076Z,100.00
2022-08-25T11:02:54.537Z,100.00
2022-08-25T11:05:32.281Z,100.00
2022-08-25T11:08:31.026Z,100.00
2022-08-25T11:11:09.651Z,100.00
2022-08-25T11:14:12.661Z,100.00
2022-08-25T11:16:48.748Z,100.00
2022-08-25T11:19:39.019Z,100.00
2022-08-25T11:22:33.450Z,100.00
2022-08-25T11:25:11.791Z,100.00
2022-08-25T11:27:52.347Z,100.00
2022-08-25T11:30:19.867Z,100.00
2022-08-25T11:32:51.643Z,100.00
2022-08-25T11:35:44.776Z,100.00
2022-08-25T11:38:29.820Z,100.00
2022-08-25T11:41:11.627Z,100.00
2022-08-25T11:44:09.478Z,100.00
2022-08-25T11:46:51.249Z,100.00
2022-08-25T11:49:42.484Z,100.00
2022-08-25T11:52:35.696Z,100.00
2022-08-25T11:55:40.067Z,100.00
2022-08-25T11:58:22.169Z,100.00
2022-08-25T12:00:48.870Z,100.00
2022-08-25T12:03:34.422Z,100.00
2022-08-25T12:06:22.527Z,100.00
2022-08-25T12:09:19.380Z,100.00
2022-08-25T12:11:52.057Z,100.00
2022-08-25T12:14:28.163Z,100.00
2022-08-25T12:16:55.141Z,100.00
2022-08-25T12:19:38.099Z,100.00
2022-08-25T12:22:04.836Z,100.00
2022-08-25T12:24:56.179Z,100.00
2022-08-25T12:27:33.512Z,100.00
2022-08-25T12:30:36.650Z,100.00
2022-08-25T12:33:22.028Z,100.00
2022-08-25T12:36:04.902Z,100.00
2022-08-25T12:38:50.844Z,100.00
2022-08-25T12:41:26.413Z,100.00
2022-08-25T12:44:08.848Z,100.00
2022-08-25T12:46:39.417Z,100.00
2022-08-25T12:49:15.366Z,100.00
2022-08-25T12:51:54.204Z,100.00
2022-08-25T12:54:36.506Z,100.00
2022-08-25T12:57:41.010Z,100.00
2022-08-25T13:03:53.034Z,100.00
2022-08-25T13:06:46.657Z,100.00
2022-08-25T13:09:41.099Z,100.00
2022-08-25T13:12:16.439Z,100.00
2022-08-25T13:14:44.639Z,100.00
2022-08-25T13:17:12.118Z,100.00
2022-08-25T13:19:38.737Z,100.00
2022-08-25T13:22:17.730Z,100.00
2022-08-25T13:24:47.479Z,100.00
2022-08-25T13:27:27.983Z,100.00
2022-08-25T13:29:59.852Z,100.00
2022-08-25T13:32:36.623Z,100.00
2022-08-25T13:35:23.955Z,100.00
2022-08-25T13:37:53.959Z,100.00
2022-08-25T13:40:24.497Z,100.00
2022-08-25T13:42:59.718Z,100.00
2022-08-25T13:45:31.871Z,100.00
2022-08-25T13:47:58.957Z,100.00
2022-08-25T13:50:26.437Z,100.00
2022-08-25T13:52:56.521Z,100.00
2022-08-25T13:55:27.572Z,100.00
2022-08-25T13:57:57.758Z,100.00
2022-08-25T14:01:23.469Z,100.00
2022-08-25T14:04:21.505Z,100.00
2022-08-25T14:06:49.273Z,100.00
2022-08-25T14:09:18.462Z,100.00
2022-08-25T14:11:58.572Z,100.00
2022-08-25T14:14:25.116Z,100.00
2022-08-25T14:17:00.788Z,100.00
2022-08-25T14:19:30.472Z,100.00
2022-08-25T14:22:02.051Z,100.00
2022-08-25T14:24:39.210Z,100.00
2022-08-25T14:27:07.485Z,100.00
2022-08-25T14:29:52.766Z,100.00
2022-08-25T14:32:19.859Z,100.00
2022-08-25T14:34:46.903Z,100.00
2022-08-25T14:37:17.789Z,100.00
2022-08-25T14:39:45.081Z,100.00
2022-08-25T14:42:13.566Z,100.00
2022-08-25T14:44:40.295Z,100.00
2022-08-25T14:47:08.478Z,100.00
2022-08-25T14:49:40.819Z,100.00
2022-08-25T14:52:19.262Z,100.00
2022-08-25T14:54:49.269Z,100.00
2022-08-25T14:57:16.479Z,100.00
2022-08-25T14:59:43.492Z,100.00
2022-08-25T15:02:14.274Z,100.00
2022-08-25T15:04:48.931Z,100.00
2022-08-25T15:07:37.086Z,100.00
2022-08-25T15:10:08.373Z,100.00
2022-08-25T15:12:46.923Z,100.00
2022-08-25T15:15:15.049Z,100.00
2022-08-25T15:17:44.457Z,100.00
2022-08-25T15:20:12.399Z,100.00
2022-08-25T15:22:41.793Z,100.00
2022-08-25T15:25:09.248Z,100.00
2022-08-25T15:27:36.760Z,100.00
2022-08-25T15:30:05.470Z,100.00
2022-08-25T15:32:32.093Z,100.00
2022-08-25T15:34:59.389Z,100.00
2022-08-25T15:37:26.099Z,100.00
2022-08-25T15:39:52.718Z,100.00
2022-08-25T15:42:19.932Z,100.00
2022-08-25T15:44:53.308Z,100.00
2022-08-25T15:47:21.201Z,100.00
2022-08-25T15:49:47.862Z,100.00
2022-08-25T15:52:14.521Z,100.00
2022-08-25T15:54:41.447Z,100.00
2022-08-25T15:57:10.547Z,100.00
2022-08-25T15:59:41.132Z,100.00
2022-08-25T16:02:15.154Z,100.00
2022-08-25T16:04:42.756Z,100.00
2022-08-25T16:07:09.604Z,100.00
2022-08-25T16:09:41.931Z,100.00
2022-08-25T16:12:08.942Z,100.00
2022-08-25T16:14:37.758Z,100.00
2022-08-25T16:17:05.480Z,100.00
2022-08-25T16:19:32.478Z,100.00
2022-08-25T16:22:00.542Z,100.00
2022-08-25T16:24:27.300Z,100.00
2022-08-25T16:26:55.880Z,100.00
2022-08-25T16:29:23.310Z,100.00
2022-08-25T16:31:53.527Z,100.00
2022-08-25T16:34:22.363Z,100.00
2022-08-25T16:36:52.329Z,100.00
2022-08-25T16:39:20.679Z,100.00
2022-08-25T16:41:47.785Z,100.00
2022-08-25T16:44:15.058Z,100.00
2022-08-25T16:46:44.324Z,100.00
2022-08-25T16:49:12.352Z,100.00
2022-08-25T16:51:40.099Z,100.00
2022-08-25T16:54:27.795Z,100.00
2022-08-25T16:56:55.553Z,100.00
2022-08-25T16:59:23.586Z,100.00
2022-08-25T17:01:51.469Z,100.00
2022-08-25T17:04:18.327Z,100.00
2022-08-25T17:06:49.569Z,100.00
2022-08-25T17:09:23.064Z,98.13
2022-08-25T17:11:52.291Z,100.00
2022-08-25T17:14:21.696Z,100.00
2022-08-25T17:16:48.688Z,100.00
2022-08-25T17:19:18.602Z,100.00
2022-08-25T17:21:49.901Z,100.00
2022-08-25T17:24:17.762Z,100.00
2022-08-25T17:26:47.292Z,100.00
2022-08-25T17:29:17.702Z,100.00
2022-08-25T17:31:48.432Z,100.00
2022-08-25T17:34:23.003Z,100.00
2022-08-25T17:36:50.776Z,100.00
2022-08-25T17:39:19.746Z,100.00
2022-08-25T17:41:49.553Z,100.00
2022-08-25T17:44:18.092Z,100.00
2022-08-25T17:46:45.079Z,100.00
2022-08-25T17:49:15.503Z,100.00
2022-08-25T17:51:42.662Z,100.00
2022-08-25T17:54:09.618Z,100.00
2022-08-25T17:56:37.672Z,100.00
2022-08-25T17:59:04.346Z,100.00
2022-08-25T18:01:40.544Z,100.00
2022-08-25T18:04:14.255Z,100.00
2022-08-25T18:06:45.392Z,100.00
2022-08-25T18:09:12.393Z,100.00
2022-08-25T18:11:39.054Z,100.00
2022-08-25T18:14:05.725Z,100.00
2022-08-25T18:16:32.809Z,100.00
2022-08-25T18:19:00.811Z,100.00
2022-08-25T18:21:30.597Z,100.00
2022-08-25T18:23:57.449Z,100.00
2022-08-25T18:26:25.494Z,100.00
2022-08-25T18:28:52.201Z,100.00
2022-08-25T18:31:19.790Z,100.00
2022-08-25T18:33:46.732Z,100.00
2022-08-25T18:36:13.887Z,100.00
2022-08-25T18:39:00.414Z,100.00
2022-08-25T18:41:33.013Z,100.00
2022-08-25T18:43:59.550Z,100.00
2022-08-25T18:46:26.112Z,100.00
2022-08-25T18:48:53.301Z,100.00
2022-08-25T18:51:23.239Z,100.00
2022-08-25T18:53:54.477Z,100.00
2022-08-25T18:56:25.946Z,100.00
2022-08-25T18:58:52.504Z,100.00
2022-08-25T19:01:20.075Z,100.00
2022-08-25T19:03:49.214Z,100.00
2022-08-25T19:06:17.210Z,100.00
2022-08-25T19:08:46.365Z,100.00
2022-08-25T19:11:13.093Z,100.00
2022-08-25T19:13:40.281Z,100.00
2022-08-25T19:16:30.680Z,100.00
2022-08-25T19:18:57.557Z,100.00
2022-08-25T19:21:24.962Z,100.00
2022-08-25T19:23:53.088Z,100.00
2022-08-25T19:26:20.260Z,100.00
2022-08-25T19:28:49.462Z,100.00
2022-08-25T19:31:24.861Z,100.00
2022-08-25T19:33:53.981Z,100.00
2022-08-25T19:36:24.276Z,100.00
2022-08-25T19:38:58.523Z,100.00
2022-08-25T19:41:27.404Z,100.00
2022-08-25T19:43:56.647Z,100.00
2022-08-25T19:46:32.639Z,100.00
2022-08-25T19:49:07.211Z,100.00
2022-08-25T19:51:36.396Z,100.00
2022-08-25T19:54:03.252Z,100.00
2022-08-25T19:56:31.153Z,100.00
2022-08-25T19:58:57.740Z,100.00
2022-08-25T20:01:24.802Z,100.00
2022-08-25T20:03:52.135Z,100.00
2022-08-25T20:06:19.117Z,100.00
2022-08-25T20:08:46.012Z,100.00
2022-08-25T20:11:12.626Z,100.00
2022-08-25T20:13:39.310Z,100.00
2022-08-25T20:16:06.193Z,100.00
2022-08-25T20:18:32.827Z,100.00
2022-08-25T20:21:01.595Z,100.00
2022-08-25T20:23:46.478Z,100.00
2022-08-25T20:26:13.301Z,100.00
2022-08-25T20:28:42.146Z,100.00
2022-08-25T20:31:09.154Z,100.00
2022-08-25T20:33:36.074Z,100.00
2022-08-25T20:36:04.742Z,100.00
2022-08-25T20:38:32.032Z,100.00
2022-08-25T20:41:00.729Z,100.00
2022-08-25T20:43:29.571Z,100.00
2022-08-25T20:46:00.780Z,100.00
2022-08-25T20:48:27.964Z,100.00
2022-08-25T20:50:57.802Z,100.00
2022-08-25T20:53:26.174Z,100.00
2022-08-25T20:55:52.739Z,100.00
2022-08-25T20:58:20.361Z,100.00
2022-08-25T21:00:47.477Z,100.00
2022-08-25T21:03:14.138Z,100.00
2022-08-25T21:05:42.232Z,100.00
2022-08-25T21:08:10.206Z,100.00
2022-08-25T21:10:37.515Z,100.00
2022-08-25T21:13:04.121Z,100.00
2022-08-25T21:15:31.433Z,100.00
2022-08-25T21:17:59.034Z,100.00
2022-08-25T21:20:26.206Z,100.00
2022-08-25T21:22:53.291Z,100.00
2022-08-25T21:25:21.690Z,100.00
2022-08-25T21:27:49.157Z,100.00
2022-08-25T21:30:19.034Z,100.00
2022-08-25T21:32:53.751Z,100.00
2022-08-25T21:35:22.378Z,100.00
2022-08-25T21:37:53.337Z,100.00
2022-08-25T21:40:21.786Z,100.00
2022-08-25T21:42:49.120Z,100.00
2022-08-25T21:45:16.607Z,100.00
2022-08-25T21:47:47.769Z,100.00
2022-08-25T21:50:14.451Z,100.00
2022-08-25T21:52:42.226Z,100.00
2022-08-25T21:55:15.740Z,100.00
2022-08-25T21:57:43.021Z,100.00
2022-08-25T22:00:11.573Z,100.00
2022-08-25T22:02:38.488Z,100.00
2022-08-25T22:05:09.245Z,100.00
2022-08-25T22:07:40.437Z,100.00
2022-08-25T22:10:09.508Z,100.00
2022-08-25T22:12:45.553Z,100.00
2022-08-25T22:15:13.939Z,100.00
2022-08-25T22:17:40.776Z,100.00
2022-08-25T22:20:08.965Z,100.00
2022-08-25T22:22:36.024Z,100.00
2022-08-25T22:25:03.694Z,100.00
2022-08-25T22:27:32.191Z,100.00
2022-08-25T22:29:59.182Z,100.00
2022-08-25T22:32:26.401Z,100.00
2022-08-25T22:34:53.356Z,100.00
2022-08-25T22:37:20.668Z,100.00
2022-08-25T22:39:50.049Z,100.00
2022-08-25T22:42:18.474Z,100.00
2022-08-25T22:44:45.098Z,100.00
2022-08-25T22:47:12.780Z,100.00
2022-08-25T22:49:39.803Z,100.00
2022-08-25T22:52:07.163Z,100.00
2022-08-25T22:54:38.690Z,100.00
2022-08-25T22:57:06.903Z,100.00
2022-08-25T22:59:34.166Z,100.00
2022-08-25T23:02:01.053Z,100.00
2022-08-25T23:04:28.578Z,100.00
2022-08-25T23:06:55.291Z,100.00
2022-08-25T23:09:24.961Z,100.00
2022-08-25T23:11:53.681Z,100.00
2022-08-25T23:14:21.688Z,100.00
2022-08-25T23:16:48.522Z,100.00
2022-08-25T23:19:17.239Z,100.00
2022-08-25T23:22:04.987Z,100.00
2022-08-25T23:24:35.009Z,100.00
2022-08-25T23:27:05.215Z,100.00
2022-08-25T23:29:35.577Z,100.00
2022-08-25T23:32:04.162Z,100.00
2022-08-25T23:34:33.749Z,100.00
2022-08-25T23:37:02.865Z,100.00
2022-08-25T23:39:36.161Z,100.00
2022-08-25T23:42:08.821Z,100.00
2022-08-25T23:45:06.138Z,100.00
2022-08-25T23:48:31.572Z,100.00
2022-08-25T23:51:56.492Z,100.00
2022-08-25T23:55:20.661Z,100.00
2022-08-25T23:58:10.703Z,100.00
